Oberon — SKJF — position and weather

sailwx.info

Track history (hours):
 
Tides and Currents Weather Stations Pressure Air Temp Water Temp Dewpoint Dewpoint Depression Visibility Wind Speed Wind Dir Waves Ship Positions

Oberon

Last reported at 2017-Oct-20 15:58 UTC. Time now 2017-Oct-20 16:14 UTC.
Position N 51°19' E 003°14'.

Length 232 m; draft 9.1 m.

Type: Cargo ship. MMSI: 266283000.

Date/timePositionNaut miles runAvg speedWind from/ knotsBaromVisibWave heightAir tempDewpointWater temp
2017-Oct-20 15:58N 51°19' E 003°14'0 0.0
2017-Oct-20 15:28N 51°19' E 003°14'0 0.0
2017-Oct-20 14:58N 51°19' E 003°13'0 0.0
2017-Oct-20 13:58N 51°19' E 003°14'0 0.0
2017-Oct-20 13:28N 51°19' E 003°14'0 0.0
2017-Oct-20 12:58N 51°19' E 003°14'0 0.0
2017-Oct-20 12:28N 51°19' E 003°14'0 0.0
2017-Oct-20 11:58N 51°19' E 003°14'0 0.0
2017-Oct-20 11:28N 51°19' E 003°14'0 0.0
2017-Oct-20 10:58N 51°19' E 003°14'0 0.0
2017-Oct-20 10:28N 51°19' E 003°14'0 0.0
2017-Oct-20 09:58N 51°19' E 003°14'0 0.0
2017-Oct-20 09:28N 51°19' E 003°14'0 0.0
2017-Oct-20 08:58N 51°19' E 003°13'0 0.0
2017-Oct-20 08:28N 51°19' E 003°14'0 0.0
2017-Oct-20 07:58N 51°19' E 003°14'0 0.0
2017-Oct-20 07:28N 51°19' E 003°14'0 0.0
2017-Oct-20 06:58N 51°19' E 003°13'0 0.0
2017-Oct-20 06:28N 51°19' E 003°13'0 0.0
2017-Oct-20 05:58N 51°19' E 003°14'0 0.0
2017-Oct-20 05:28N 51°19' E 003°13'0 0.0
2017-Oct-20 04:58N 51°19' E 003°14'0 0.0
2017-Oct-20 04:28N 51°19' E 003°14'0 0.0
2017-Oct-20 03:58N 51°19' E 003°14'0 0.0
2017-Oct-20 03:28N 51°19' E 003°14'0 0.0
2017-Oct-20 03:00N 51°19' E 003°13'1 2.2
2017-Oct-20 02:30N 51°20' E 003°13'0 0.0
2017-Oct-20 02:01N 51°20' E 003°13'1 3.0
2017-Oct-20 01:30N 51°21' E 003°12'510.2
2017-Oct-20 01:00N 51°24' E 003°05'611.1
2017-Oct-20 00:30N 51°22' E 002°57'713.4
2017-Oct-20 00:00N 51°22' E 002°46'5 9.4
2017-Oct-19 23:30N 51°22' E 002°38'5 9.4
2017-Oct-19 23:00N 51°22' E 002°31'5 9.2
2017-Oct-19 22:30N 51°20' E 002°24'4 9.0
2017-Oct-19 22:00N 51°18' E 002°18'4 8.8
2017-Oct-19 21:30N 51°15' E 002°12'713.2
2017-Oct-19 21:00N 51°12' E 002°03'713.1
2017-Oct-19 20:30N 51°09' E 001°54'612.7
2017-Oct-19 20:00N 51°05' E 001°46'713.0
2017-Oct-19 19:30N 51°00' E 001°39'612.7
2017-Oct-19 19:00N 50°56' E 001°32'611.7
2017-Oct-19 18:30N 50°51' E 001°27'612.3
2017-Oct-19 17:59N 50°45' E 001°23'613.5
2017-Oct-19 17:31N 50°40' E 001°17'1613.3
2017-Oct-19 16:16N 50°29' E 000°58'413.4
2017-Oct-19 16:00N 50°28' E 000°52'2013.5
2017-Oct-19 14:30N 50°22' E 000°22'713.8
2017-Oct-19 14:00N 50°20' E 000°11'714.3
2017-Oct-19 13:30N 50°18' E 000°01'714.6
2017-Oct-19 13:00N 50°17' W 000°11'713.8
2017-Oct-19 12:30N 50°15' W 000°21'713.5
2017-Oct-19 12:00N 50°14' W 000°31'713.4
2017-Oct-19 11:30N 50°12' W 000°41'713.5
2017-Oct-19 11:00N 50°10' W 000°52'1113.8
2017-Oct-19 10:13N 50°07' W 001°08'3314.7
2017-Oct-19 07:58N 49°59' W 001°57'1215.2
2017-Oct-19 07:10N 49°55' W 002°16'414.9
2017-Oct-19 06:53N 49°54' W 002°22'915.0
2017-Oct-19 06:19N 49°52' W 002°35'716.6
2017-Oct-19 05:55N 49°51' W 002°45'718.0
2017-Oct-19 05:30N 49°49' W 002°56'917.8
2017-Oct-19 05:00N 49°47' W 003°09'917.3
2017-Oct-19 04:30N 49°46' W 003°23'917.5
2017-Oct-19 04:00N 49°46' W 003°36'1017.2
2017-Oct-19 03:26N 49°45' W 003°51'1017.0
2017-Oct-19 02:49N 49°44' W 004°07'616.7
2017-Oct-19 02:27N 49°44' W 004°17'716.5
2017-Oct-19 02:00N 49°43' W 004°29'816.3
2017-Oct-19 01:30N 49°43' W 004°41'916.4
2017-Oct-19 00:56N 49°42' W 004°55'6215.5
2017-Oct-18 20:56N 49°39' W 006°31'1414.9
2017-Oct-18 19:59N 49°39' W 006°53'  
2017-Oct-12 02:07N 40°22' W 072°49'215.9
2017-Oct-12 01:58N 40°22' W 072°52'816.4
2017-Oct-12 01:30N 40°22' W 073°02'916.6
2017-Oct-12 00:59N 40°22' W 073°13'917.0
2017-Oct-12 00:28N 40°23' W 073°25'817.2
2017-Oct-12 00:00N 40°25' W 073°35'817.0
2017-Oct-11 23:30N 40°26' W 073°46'612.3
2017-Oct-11 22:59N 40°29' W 073°54'816.8
2017-Oct-11 22:31N 40°34' W 074°02'611.7
2017-Oct-11 21:59N 40°39' W 074°06'2 4.2
2017-Oct-11 21:30N 40°39' W 074°09'2 3.3
2017-Oct-11 21:00N 40°41' W 074°08'1 2.1
2017-Oct-11 20:30N 40°42' W 074°09'0 0.1
2017-Oct-11 20:00N 40°42' W 074°09'0 0.0
2017-Oct-11 19:30N 40°42' W 074°09'0 0.0
2017-Oct-11 18:59N 40°42' W 074°09'0 0.0
2017-Oct-11 18:23N 40°42' W 074°09'0 0.0
2017-Oct-11 17:59N 40°42' W 074°09'0 0.0
2017-Oct-11 17:29N 40°42' W 074°09'0 0.0
2017-Oct-11 16:59N 40°42' W 074°09'0 0.0
2017-Oct-10 23:59N 40°42' W 074°09'0 0.0
2017-Oct-10 23:29N 40°42' W 074°09'0 0.0
2017-Oct-10 22:59N 40°42' W 074°09'0 0.0
2017-Oct-10 22:29N 40°42' W 074°09'0 0.0
2017-Oct-10 21:59N 40°42' W 074°09'0 0.6
2017-Oct-10 21:31N 40°42' W 074°08'3 5.9
2017-Oct-10 21:01N 40°39' W 074°09'4 7.5
2017-Oct-10 20:31N 40°39' W 074°04'611.4
2017-Oct-10 20:01N 40°34' W 074°02'714.0
2017-Oct-10 19:31N 40°29' W 073°54'612.0
2017-Oct-10 19:00N 40°27' W 073°47'4 8.1
2017-Oct-10 18:29N 40°22' W 073°46'612.9
2017-Oct-10 18:00N 40°16' W 073°45'1814.2
2017-Oct-10 16:42N 39°58' W 073°44'  
Track history (hours):
 
Tides and Currents Weather Stations Pressure Air Temp Water Temp Dewpoint Dewpoint Depression Visibility Wind Speed Wind Dir Waves Ship Positions

Oberon

Last reported at 2017-Oct-20 15:58 UTC. Time now 2017-Oct-20 16:14 UTC.
Position N 51°19' E 003°14'.

Length 232 m; draft 9.1 m.

Type: Cargo ship. MMSI: 266283000.

Date/timePositionNaut miles runAvg speedWind from/ knotsBaromVisibWave heightAir tempDewpointWater temp
2017-Oct-20 15:58N 51°19' E 003°14'0 0.0
2017-Oct-20 15:28N 51°19' E 003°14'0 0.0
2017-Oct-20 14:58N 51°19' E 003°13'0 0.0
2017-Oct-20 13:58N 51°19' E 003°14'0 0.0
2017-Oct-20 13:28N 51°19' E 003°14'0 0.0
2017-Oct-20 12:58N 51°19' E 003°14'0 0.0
2017-Oct-20 12:28N 51°19' E 003°14'0 0.0
2017-Oct-20 11:58N 51°19' E 003°14'0 0.0
2017-Oct-20 11:28N 51°19' E 003°14'0 0.0
2017-Oct-20 10:58N 51°19' E 003°14'0 0.0
2017-Oct-20 10:28N 51°19' E 003°14'0 0.0
2017-Oct-20 09:58N 51°19' E 003°14'0 0.0
2017-Oct-20 09:28N 51°19' E 003°14'0 0.0
2017-Oct-20 08:58N 51°19' E 003°13'0 0.0
2017-Oct-20 08:28N 51°19' E 003°14'0 0.0
2017-Oct-20 07:58N 51°19' E 003°14'0 0.0
2017-Oct-20 07:28N 51°19' E 003°14'0 0.0
2017-Oct-20 06:58N 51°19' E 003°13'0 0.0
2017-Oct-20 06:28N 51°19' E 003°13'0 0.0
2017-Oct-20 05:58N 51°19' E 003°14'0 0.0
2017-Oct-20 05:28N 51°19' E 003°13'0 0.0
2017-Oct-20 04:58N 51°19' E 003°14'0 0.0
2017-Oct-20 04:28N 51°19' E 003°14'0 0.0
2017-Oct-20 03:58N 51°19' E 003°14'0 0.0
2017-Oct-20 03:28N 51°19' E 003°14'0 0.0
2017-Oct-20 03:00N 51°19' E 003°13'1 2.2
2017-Oct-20 02:30N 51°20' E 003°13'0 0.0
2017-Oct-20 02:01N 51°20' E 003°13'1 3.0
2017-Oct-20 01:30N 51°21' E 003°12'510.2
2017-Oct-20 01:00N 51°24' E 003°05'611.1
2017-Oct-20 00:30N 51°22' E 002°57'713.4
2017-Oct-20 00:00N 51°22' E 002°46'5 9.4
2017-Oct-19 23:30N 51°22' E 002°38'5 9.4
2017-Oct-19 23:00N 51°22' E 002°31'5 9.2
2017-Oct-19 22:30N 51°20' E 002°24'4 9.0
2017-Oct-19 22:00N 51°18' E 002°18'4 8.8
2017-Oct-19 21:30N 51°15' E 002°12'713.2
2017-Oct-19 21:00N 51°12' E 002°03'713.1
2017-Oct-19 20:30N 51°09' E 001°54'612.7
2017-Oct-19 20:00N 51°05' E 001°46'713.0
2017-Oct-19 19:30N 51°00' E 001°39'612.7
2017-Oct-19 19:00N 50°56' E 001°32'611.7
2017-Oct-19 18:30N 50°51' E 001°27'612.3
2017-Oct-19 17:59N 50°45' E 001°23'613.5
2017-Oct-19 17:31N 50°40' E 001°17'1613.3
2017-Oct-19 16:16N 50°29' E 000°58'413.4
2017-Oct-19 16:00N 50°28' E 000°52'2013.5
2017-Oct-19 14:30N 50°22' E 000°22'713.8
2017-Oct-19 14:00N 50°20' E 000°11'714.3
2017-Oct-19 13:30N 50°18' E 000°01'714.6
2017-Oct-19 13:00N 50°17' W 000°11'713.8
2017-Oct-19 12:30N 50°15' W 000°21'713.5
2017-Oct-19 12:00N 50°14' W 000°31'713.4
2017-Oct-19 11:30N 50°12' W 000°41'713.5
2017-Oct-19 11:00N 50°10' W 000°52'1113.8
2017-Oct-19 10:13N 50°07' W 001°08'3314.7
2017-Oct-19 07:58N 49°59' W 001°57'1215.2
2017-Oct-19 07:10N 49°55' W 002°16'414.9
2017-Oct-19 06:53N 49°54' W 002°22'915.0
2017-Oct-19 06:19N 49°52' W 002°35'716.6
2017-Oct-19 05:55N 49°51' W 002°45'718.0
2017-Oct-19 05:30N 49°49' W 002°56'917.8
2017-Oct-19 05:00N 49°47' W 003°09'917.3
2017-Oct-19 04:30N 49°46' W 003°23'917.5
2017-Oct-19 04:00N 49°46' W 003°36'1017.2
2017-Oct-19 03:26N 49°45' W 003°51'1017.0
2017-Oct-19 02:49N 49°44' W 004°07'616.7
2017-Oct-19 02:27N 49°44' W 004°17'716.5
2017-Oct-19 02:00N 49°43' W 004°29'816.3
2017-Oct-19 01:30N 49°43' W 004°41'916.4
2017-Oct-19 00:56N 49°42' W 004°55'6215.5
2017-Oct-18 20:56N 49°39' W 006°31'1414.9
2017-Oct-18 19:59N 49°39' W 006°53'  
2017-Oct-12 02:07N 40°22' W 072°49'215.9
2017-Oct-12 01:58N 40°22' W 072°52'816.4
2017-Oct-12 01:30N 40°22' W 073°02'916.6
2017-Oct-12 00:59N 40°22' W 073°13'917.0
2017-Oct-12 00:28N 40°23' W 073°25'817.2
2017-Oct-12 00:00N 40°25' W 073°35'817.0
2017-Oct-11 23:30N 40°26' W 073°46'612.3
2017-Oct-11 22:59N 40°29' W 073°54'816.8
2017-Oct-11 22:31N 40°34' W 074°02'611.7
2017-Oct-11 21:59N 40°39' W 074°06'2 4.2
2017-Oct-11 21:30N 40°39' W 074°09'2 3.3
2017-Oct-11 21:00N 40°41' W 074°08'1 2.1
2017-Oct-11 20:30N 40°42' W 074°09'0 0.1
2017-Oct-11 20:00N 40°42' W 074°09'0 0.0
2017-Oct-11 19:30N 40°42' W 074°09'0 0.0
2017-Oct-11 18:59N 40°42' W 074°09'0 0.0
2017-Oct-11 18:23N 40°42' W 074°09'0 0.0
2017-Oct-11 17:59N 40°42' W 074°09'0 0.0
2017-Oct-11 17:29N 40°42' W 074°09'0 0.0
2017-Oct-11 16:59N 40°42' W 074°09'0 0.0
2017-Oct-10 23:59N 40°42' W 074°09'0 0.0
2017-Oct-10 23:29N 40°42' W 074°09'0 0.0
2017-Oct-10 22:59N 40°42' W 074°09'0 0.0
2017-Oct-10 22:29N 40°42' W 074°09'0 0.0
2017-Oct-10 21:59N 40°42' W 074°09'0 0.6
2017-Oct-10 21:31N 40°42' W 074°08'3 5.9
2017-Oct-10 21:01N 40°39' W 074°09'4 7.5
2017-Oct-10 20:31N 40°39' W 074°04'611.4
2017-Oct-10 20:01N 40°34' W 074°02'714.0
2017-Oct-10 19:31N 40°29' W 073°54'612.0
2017-Oct-10 19:00N 40°27' W 073°47'4 8.1
2017-Oct-10 18:29N 40°22' W 073°46'612.9
2017-Oct-10 18:00N 40°16' W 073°45'1814.2
2017-Oct-10 16:42N 39°58' W 073°44'  

Dump ship's entire track history